Bob Sikes Airport
KCEW : now visible

Aeroporto :











RITROVATECI SU...

 
LOGIN :

Iscrizione | Disclaimer

   EN    FR    IT 

 









Sommario :    VFR   VFR Marginale   IFR   IFR Intensivo   IFR Molto Intensivo
Visibilità : 
Base nubi : 
>= 8 km
>= 3000ft
5 / 8 km
1000 / 3000 ft
1500m / 5 km
500 / 1000 ft
800 / 1500m
200 / 500 ft
< 800m
< 200 ft
Simboli :   Temporali  Nebbia  Neve Forte  Precipitazioni Forti  Vento > 20 kt







- Altitudine del aeroporto : 213 ft


KCEW - Bob Sikes

ULTIMO METAR :
  • 241142Z AUTO 00000KT 6SM BR SCT001 23/22 A3003 RMK AO2 T02280217

METARs OBSOLETI :
  • 241127Z AUTO 00000KT 3SM BR BKN001 22/22 A3003 RMK AO2 T02220217
  • 241117Z AUTO 00000KT 2SM BR BKN001 22/22 A3002 RMK AO2 T02220217
  • 241114Z AUTO 00000KT 8SM SCT001 23/22 A3002 RMK AO2 T02280217
  • 241105Z AUTO 00000KT 7SM BKN001 22/22 A3002 RMK AO2 T02220217
  • 241053Z AUTO 00000KT 8SM SCT001 22/22 A3002 RMK AO2 SLP161 T02220217
  • 241031Z AUTO 00000KT 7SM FEW001 23/22 A3001 RMK AO2 T02280217
  • 241005Z AUTO 00000KT 4SM BR CLR 23/22 A3001 RMK AO2 T02280222
  • 240953Z AUTO 00000KT 2 1/2SM BR FEW001 23/22 A3000 RMK AO2 SLP155 T02280222
  • 240940Z AUTO 00000KT 3SM BR BKN001 23/22 A2999 RMK AO2 T02280222
  • 240853Z AUTO 00000KT 1/2SM FG VV001 23/22 A2999 RMK AO2 SLP150 T02280222 56001

TAF N/A
Nessun NOTAM noto per questo aeroporto.



MetMap, La meteo Aeronautica in un colpo d'occhio ! - Copyright ORBIFLY Dicembre 2007 - Disclaimer

ORBIFLY MET'MAP TEAM :

Programmazione e sviluppo : Alexandra Zaïnal
Concezione e sviluppo : Baudouin d'Aumeries
Co-Programmazione e sviluppo : Marc-Olivier Méhu
Supporto tecnico e logistico : Manuel Goepfert
Aiuto per la traduzione : Arnaldo La Scala

Contatto : metmap@orbifly.com




FONTI E CREDITI :

   NOAA       Earth
Advisory